• Join FlightAware (Why Join?)
  • Login
  • US Flag 
Rudolph Flight #1: Arrived! 
07:13AM EST


 

Airport Tracker/Info


-or-


 

Live Flight TrackerFlight Track Log ✈ N908BS ✈ 08-May-2013 ✈ KBFL - KLAS

Flight Track Log - Related Links

Times and Time Zones

All times are in EDT time to prevent confusion due to time zone crossing. See the N908BS flight status page for this flight to view local times or setup timezone preferences in your user account.

Time Position Orientation Groundspeed Altitude Reporting Facility
EDT Latitude Longitude Course Direction KTS MPH feet Rate Location/Type
11:25AM 35.3811 -119.1103 151° Southeast 190 219 23,000  Level Los Angeles Center
11:26AM 35.3414 -119.0750 144° Southeast 189 217 6,100 -7,260 Descending Los Angeles Center
11:27AM 35.3053 -119.0200 129° Southeast 204 235 8,100 2,040 Climbing Los Angeles Center
11:28AM 35.2581 -118.9550 132° Southeast 209 241 10,300 1,980 Climbing Los Angeles Center
11:29AM 35.2186 -118.8972 130° Southeast 217 250 12,200 1,800 Climbing Los Angeles Center
11:30AM 35.2616 -118.8423 129° Southeast  Level FlightAware Approximate
11:31AM 35.2104 -118.7847 151° Southeast  Level FlightAware Approximate
11:31AM 35.2422 -118.8019 151° Southeast  Level Estimated
11:31AM 35.1369 -118.7833 151° Southeast 230 265 15,900  Level Los Angeles Center
11:32AM 35.0958 -118.7222 129° Southeast 233 268 17,700 1,500 Climbing Los Angeles Center
11:33AM 35.0514 -118.6606 131° Southeast 240 276 19,100 1,560 Climbing Los Angeles Center
11:35AM 34.9989 -118.5833 130° Southeast 246 283 21,000 1,620 Climbing Los Angeles Center
11:36AM 34.9533 -118.5192 131° Southeast 249 287 22,500 960 Climbing Los Angeles Center
11:37AM 34.9044 -118.4508 131° Southeast 264 304 23,000 240 Climbing Los Angeles Center
11:38AM 34.8514 -118.3753 131° Southeast 292 336 23,000  Level Los Angeles Center
11:39AM 34.7961 -118.2967 131° Southeast 305 351 23,000  Level Los Angeles Center
11:40AM 34.7394 -118.2164 131° Southeast 312 359 23,000  Level Los Angeles Center
11:41AM 34.7053 -118.1183 113° Southeast 317 365 23,000  Level Los Angeles Center
11:42AM 34.6814 -117.9972 103° East 317 365 23,000  Level Los Angeles Center
11:43AM 34.6844 -117.8931 88° East 311 358 23,000  Level Los Angeles Center
11:44AM 34.6856 -117.7883 89° East 313 360 23,000  Level Los Angeles Center
11:45AM 34.6969 -117.6861 82° East 309 356 23,000  Level Los Angeles Center
11:46AM 34.7244 -117.5878 71° East 309 356 23,000  Level Los Angeles Center
11:47AM 34.7522 -117.4664 74° East 313 360 23,000  Level Los Angeles Center
11:48AM 34.7767 -117.3661 73° East 313 360 23,000  Level Los Angeles Center
11:49AM 34.8008 -117.2636 74° East 317 365 23,000  Level Los Angeles Center
11:50AM 34.8256 -117.1606 74° East 319 367 23,000  Level Los Angeles Center
11:51AM 34.8556 -117.0389 73° East 317 365 23,000  Level Los Angeles Center
11:52AM 34.8742 -116.9564 75° East 316 364 23,000  Level Los Angeles Center
11:53AM 34.9033 -116.8331 74° East 317 365 23,000  Level Los Angeles Center
11:54AM 34.9278 -116.7317 74° East 314 361 23,000  Level Los Angeles Center
11:55AM 34.9508 -116.6292 75° East 316 364 23,000  Level Los Angeles Center
11:56AM 34.9797 -116.5311 70° East 309 356 23,000  Level Los Angeles Center
11:57AM 35.0322 -116.4219 60° Northeast 311 358 23,000  Level Los Angeles Center
11:58AM 35.0714 -116.3286 63° Northeast 310 357 23,000  Level Los Angeles Center
11:59AM 35.1139 -116.2364 61° Northeast 312 359 23,000  Level Los Angeles Center
12:00PM 35.1533 -116.1428 63° Northeast 311 358 23,000  Level Los Angeles Center
12:01PM 35.1958 -116.0508 60° Northeast 312 359 23,000 -240 Level Los Angeles Center
12:02PM 35.2439 -115.9375 63° Northeast 312 359 22,600 -1,260 Descending Los Angeles Center
12:04PM 35.2861 -115.8431 61° Northeast 316 364 20,500 -2,400 Descending Los Angeles Center
12:05PM 35.3292 -115.7519 60° Northeast 312 359 17,700 -2,520 Descending Los Angeles Center
12:06PM 35.3894 -115.6800 44° Northeast 303 349 15,400 -2,460 Descending Los Angeles Center
12:07PM 35.4456 -115.6050 47° Northeast 299 344 12,700 -2,640 Descending Los Angeles Center
12:07PM 35.4833 -115.5519 49° Northeast 297 342 11,000 -2,340 Descending Los Angeles Center
12:08PM 35.5058 -115.5239 45° Northeast 291 335 10,300 -720 Descending Los Angeles Center
12:09PM 35.5556 -115.4597 46° Northeast 276 318 10,000 -180 Descending Los Angeles Center
12:10PM 35.6033 -115.3964 47° Northeast 265 305 10,000 -720 Level Los Angeles Center
12:11PM 35.6531 -115.3303 47° Northeast 261 300 8,600 -1,020 Descending Los Angeles Center
12:12PM 35.7139 -115.2483 48° Northeast 266 306 8,000 -300 Descending Los Angeles Center
12:13PM 35.7553 -115.1897 49° Northeast 253 291 8,000  Level Los Angeles Center
12:14PM 35.7867 -115.1511 45° Northeast 231 266 8,000 -300 Level Los Angeles Center
12:15PM 35.8558 -115.1364 10° North 217 250 7,400 -780 Descending Los Angeles Center
12:16PM 35.9119 -115.1250 North 212 244 6,500 -840 Descending Los Angeles Center
12:17PM 35.9858 -115.1208 North 211 243 5,600 -480 Descending Los Angeles Center
12:18PM 36.0422 -115.1022 15° North 211 243 5,500 -120 Descending Los Angeles Center
12:19PM 36.0922 -115.0864 14° North 209 241 5,400 -960 Descending Los Angeles Center
12:20PM 36.1317 -115.1153 329° Northwest 186 214 3,600 -1,320 Descending Los Angeles Center
12:21PM 36.1214 -115.1436 246° West 158 182 2,700 -840 Descending Los Angeles Center
12:22PM 36.0950 -115.1575 203° Southwest 122 140 2,000 -720 Descending Los Angeles Center
12:24PM 36.0801 -115.1523 180° South  Level Estimated